Terminal Aerodrome Forecast
Issued by NWS Tiyan, Guam

Home | Current Version | Previous Version | Text Only | Print | Product List | Glossary On
Versions: 1 2 3 4 5 6 7 8 9 10 11 12 13 14 15
000
FTPQ31 PGUM 201743
TAFGUM
TAF
PGUM 201743Z 2018/2124 05011KT P6SM FEW025 FEW050
     FM210000 05012G22KT P6SM FEW025 FEW050
     FM210300 05021G22KT P6SM VCSH FEW020 SCT050 SCT100
     FM210800 05011KT P6SM FEW025 FEW050=

USA.gov is the U.S. government's official web portal to all federal, state and local government web resources and services.